createdAt,value
2023-04-06T00:01:09.481Z,67.90
2023-04-06T00:03:36.820Z,68.40
2023-04-06T00:06:04.580Z,68.80
2023-04-06T00:08:31.561Z,69.00
2023-04-06T00:10:58.521Z,69.10
2023-04-06T00:13:25.428Z,69.20
2023-04-06T00:15:52.487Z,69.30
2023-04-06T00:18:20.534Z,69.40
2023-04-06T00:20:47.565Z,69.40
2023-04-06T00:23:14.517Z,69.20
2023-04-06T00:25:41.605Z,69.10
2023-04-06T00:28:08.632Z,69.30
2023-04-06T00:30:36.014Z,69.90
2023-04-06T00:33:03.000Z,70.50
2023-04-06T00:35:30.086Z,70.30
2023-04-06T00:37:57.145Z,69.80
2023-04-06T00:40:24.313Z,69.50
2023-04-06T00:42:51.390Z,69.10
2023-04-06T00:45:18.545Z,68.70
2023-04-06T00:47:45.663Z,69.10
2023-04-06T00:50:12.784Z,69.70
2023-04-06T00:52:39.801Z,70.90
2023-04-06T00:55:09.248Z,70.70
2023-04-06T00:57:41.249Z,71.20
2023-04-06T01:00:08.846Z,71.50
2023-04-06T01:02:36.633Z,71.50
2023-04-06T01:05:04.104Z,71.70
2023-04-06T01:07:39.413Z,72.00
2023-04-06T01:10:11.625Z,72.30
2023-04-06T01:12:39.887Z,72.60
2023-04-06T01:15:14.718Z,72.50
2023-04-06T01:17:44.770Z,72.50
2023-04-06T01:20:15.612Z,72.60
2023-04-06T01:22:43.585Z,72.50
2023-04-06T01:25:12.403Z,72.50
2023-04-06T01:27:53.944Z,72.60
2023-04-06T01:30:30.217Z,72.20
2023-04-06T01:33:01.591Z,72.30
2023-04-06T01:35:41.660Z,72.30
2023-04-06T01:38:20.626Z,72.10
2023-04-06T01:40:48.974Z,72.00
2023-04-06T01:43:18.362Z,72.10
2023-04-06T01:46:07.751Z,72.30
2023-04-06T01:48:37.759Z,72.20
2023-04-06T01:51:17.990Z,71.70
2023-04-06T01:53:51.397Z,71.20
2023-04-06T01:56:21.351Z,71.10
2023-04-06T01:59:08.678Z,71.00
2023-04-06T02:01:40.349Z,70.80
2023-04-06T02:04:07.331Z,70.60
2023-04-06T02:06:34.815Z,70.70
2023-04-06T02:09:03.918Z,70.60
2023-04-06T02:11:31.320Z,70.50
2023-04-06T02:13:58.339Z,70.50
2023-04-06T02:16:29.862Z,70.60
2023-04-06T02:18:56.937Z,70.50
2023-04-06T02:21:23.973Z,70.70
2023-04-06T02:23:51.036Z,70.30
2023-04-06T02:26:18.486Z,70.00
2023-04-06T02:28:45.558Z,69.80
2023-04-06T02:31:12.626Z,69.60
2023-04-06T02:33:39.761Z,69.70
2023-04-06T02:36:07.656Z,69.20
2023-04-06T02:38:34.944Z,69.20
2023-04-06T02:41:03.082Z,69.50
2023-04-06T02:43:30.671Z,69.20
2023-04-06T02:46:06.226Z,69.00
2023-04-06T02:48:38.204Z,69.00
2023-04-06T02:51:05.645Z,69.10
2023-04-06T02:53:32.748Z,69.20
2023-04-06T02:56:00.050Z,69.10
2023-04-06T02:58:35.500Z,68.70
2023-04-06T03:01:03.180Z,68.40
2023-04-06T03:03:31.175Z,68.20
2023-04-06T03:06:00.768Z,67.90
2023-04-06T03:08:31.223Z,67.70
2023-04-06T03:10:58.983Z,67.80
2023-04-06T03:13:33.834Z,67.90
2023-04-06T03:16:01.049Z,68.40
2023-04-06T03:18:28.320Z,68.60
2023-04-06T03:20:57.222Z,68.70
2023-04-06T03:23:33.462Z,68.40
2023-04-06T03:26:03.628Z,68.50
2023-04-06T03:28:31.040Z,68.40
2023-04-06T03:31:01.447Z,68.30
2023-04-06T03:33:47.277Z,68.40
2023-04-06T03:36:26.392Z,68.20
2023-04-06T03:38:55.431Z,68.00
2023-04-06T03:41:22.541Z,68.00
2023-04-06T03:44:04.336Z,68.20
2023-04-06T03:46:31.518Z,68.30
2023-04-06T03:48:59.571Z,68.50
2023-04-06T03:51:27.255Z,68.50
2023-04-06T03:53:54.233Z,68.70
2023-04-06T03:56:21.705Z,68.80
2023-04-06T03:58:51.961Z,68.90
2023-04-06T04:01:21.633Z,69.40
2023-04-06T04:03:51.453Z,69.80
2023-04-06T04:06:18.920Z,70.10
2023-04-06T04:08:46.589Z,70.70
2023-04-06T04:11:13.596Z,71.10
2023-04-06T04:13:40.594Z,71.10
2023-04-06T04:16:09.124Z,71.20
2023-04-06T04:18:37.671Z,71.50
2023-04-06T04:21:06.972Z,71.80
2023-04-06T04:23:36.770Z,71.80
2023-04-06T04:26:04.570Z,71.60
2023-04-06T04:28:31.641Z,71.70
2023-04-06T04:30:58.839Z,71.50
2023-04-06T04:33:26.197Z,71.60
2023-04-06T04:35:56.389Z,71.80
2023-04-06T04:38:25.835Z,72.00
2023-04-06T04:40:55.971Z,72.10
2023-04-06T04:43:23.160Z,71.90
2023-04-06T04:45:50.356Z,71.90
2023-04-06T04:48:36.259Z,71.90
2023-04-06T04:51:06.809Z,72.30
2023-04-06T04:53:53.752Z,72.50
2023-04-06T04:56:25.241Z,72.40
2023-04-06T04:58:58.069Z,72.10
2023-04-06T05:01:27.235Z,71.70
2023-04-06T05:03:54.335Z,71.20
2023-04-06T05:06:21.332Z,71.10
2023-04-06T05:08:48.884Z,71.10
2023-04-06T05:11:16.599Z,71.40
2023-04-06T05:13:47.816Z,71.20
2023-04-06T05:16:22.002Z,71.40
2023-04-06T05:18:50.758Z,71.80
2023-04-06T05:21:17.915Z,71.90
2023-04-06T05:24:03.527Z,72.00
2023-04-06T05:26:33.076Z,72.50
2023-04-06T05:29:06.372Z,72.60
2023-04-06T05:31:36.644Z,72.70
2023-04-06T05:34:03.797Z,73.30
2023-04-06T05:36:37.072Z,73.50
2023-04-06T05:39:10.315Z,73.80
2023-04-06T05:41:44.769Z,74.00
2023-04-06T05:44:13.384Z,74.00
2023-04-06T05:46:43.457Z,73.90
2023-04-06T05:49:14.856Z,73.70
2023-04-06T05:51:41.903Z,73.60
2023-04-06T05:54:09.070Z,73.20
2023-04-06T05:56:36.334Z,72.80
2023-04-06T05:59:04.038Z,72.40
2023-04-06T06:01:32.205Z,72.20
2023-04-06T06:04:01.960Z,72.10
2023-04-06T06:06:31.366Z,71.50
2023-04-06T06:09:24.836Z,71.10
2023-04-06T06:12:14.835Z,70.80
2023-04-06T06:14:42.266Z,69.00
2023-04-06T06:17:09.594Z,67.00
2023-04-06T06:19:37.196Z,65.00
2023-04-06T06:22:07.422Z,63.30
2023-04-06T06:24:38.407Z,62.20
2023-04-06T06:27:05.586Z,62.60
2023-04-06T06:29:34.783Z,62.40
2023-04-06T06:32:01.875Z,63.10
2023-04-06T06:34:29.223Z,63.50
2023-04-06T06:36:58.903Z,63.70
2023-04-06T06:39:26.023Z,63.90
2023-04-06T06:41:55.462Z,64.20
2023-04-06T06:44:41.147Z,64.80
2023-04-06T06:47:08.236Z,65.10
2023-04-06T06:49:35.208Z,65.40
2023-04-06T06:52:02.369Z,65.70
2023-04-06T06:54:29.315Z,65.60
2023-04-06T06:56:56.859Z,65.40
2023-04-06T06:59:24.248Z,65.30
2023-04-06T07:01:51.777Z,65.30
2023-04-06T07:04:18.768Z,64.80
2023-04-06T07:06:45.861Z,64.50
2023-04-06T07:09:12.786Z,64.20
2023-04-06T07:11:40.515Z,62.90
2023-04-06T07:14:07.890Z,61.80
2023-04-06T07:16:35.157Z,61.70
2023-04-06T07:19:02.295Z,61.40
2023-04-06T07:21:29.513Z,61.20
2023-04-06T07:23:57.111Z,61.40
2023-04-06T07:26:24.160Z,61.00
2023-04-06T07:28:51.104Z,60.70
2023-04-06T07:31:19.110Z,60.30
2023-04-06T07:33:46.245Z,59.70
2023-04-06T07:36:13.460Z,58.70
2023-04-06T07:38:40.500Z,57.00
2023-04-06T07:41:07.577Z,56.70
2023-04-06T07:43:35.564Z,56.60
2023-04-06T07:46:03.236Z,56.20
2023-04-06T07:48:30.646Z,55.40
2023-04-06T07:51:07.739Z,53.90
2023-04-06T07:53:38.740Z,52.80
2023-04-06T07:56:05.916Z,52.90
2023-04-06T07:58:32.924Z,53.30
2023-04-06T08:01:00.497Z,52.90
2023-04-06T08:03:27.696Z,52.70
2023-04-06T08:05:54.847Z,51.90
2023-04-06T08:08:22.333Z,51.40
2023-04-06T08:10:49.949Z,51.70
2023-04-06T08:13:17.513Z,50.90
2023-04-06T08:15:45.029Z,51.10
2023-04-06T08:18:12.217Z,51.70
2023-04-06T08:20:40.039Z,51.60
2023-04-06T08:23:07.787Z,51.50
2023-04-06T08:25:38.071Z,51.00
2023-04-06T08:28:05.726Z,49.60
2023-04-06T08:30:32.714Z,49.50
2023-04-06T08:32:59.808Z,48.10
2023-04-06T08:35:28.129Z,47.40
2023-04-06T08:37:55.206Z,47.80
2023-04-06T08:40:22.277Z,47.10
2023-04-06T08:42:55.748Z,46.50
2023-04-06T08:45:23.537Z,45.30
2023-04-06T08:47:55.600Z,44.80
2023-04-06T08:50:22.751Z,43.50
2023-04-06T08:52:50.064Z,45.10
2023-04-06T08:55:17.565Z,44.90
2023-04-06T08:57:46.204Z,43.10
2023-04-06T09:00:14.105Z,43.90
2023-04-06T09:02:44.041Z,43.80
2023-04-06T09:05:11.678Z,42.90
2023-04-06T09:07:38.979Z,43.60
2023-04-06T09:10:06.746Z,43.80
2023-04-06T09:12:34.441Z,43.20
2023-04-06T09:15:02.041Z,41.90
2023-04-06T09:17:34.941Z,42.30
2023-04-06T09:20:02.660Z,42.20
2023-04-06T09:22:43.051Z,42.40
2023-04-06T09:25:11.820Z,42.40
2023-04-06T09:27:39.546Z,41.80
2023-04-06T09:30:15.519Z,41.00
2023-04-06T09:32:47.912Z,40.20
2023-04-06T09:35:15.966Z,41.00
2023-04-06T09:37:44.541Z,37.00
2023-04-06T09:40:12.122Z,37.60
2023-04-06T09:42:41.525Z,37.70
2023-04-06T09:45:09.184Z,39.00
2023-04-06T09:47:38.313Z,39.30
2023-04-06T09:50:06.179Z,38.90
2023-04-06T09:52:38.009Z,37.80
2023-04-06T09:55:09.005Z,37.80
2023-04-06T09:57:46.585Z,37.50
2023-04-06T10:00:19.053Z,37.60
2023-04-06T10:02:50.291Z,38.00
2023-04-06T10:05:40.576Z,37.60
2023-04-06T10:08:10.536Z,37.90
2023-04-06T10:10:38.406Z,37.80
2023-04-06T10:13:06.058Z,36.90
2023-04-06T10:15:34.383Z,37.00
2023-04-06T10:18:02.452Z,36.80
2023-04-06T10:20:39.203Z,36.80
2023-04-06T10:23:11.766Z,35.10
2023-04-06T10:25:38.861Z,35.50
2023-04-06T10:28:12.351Z,36.80
2023-04-06T10:30:44.433Z,36.70
2023-04-06T10:33:15.829Z,37.90
2023-04-06T10:35:43.072Z,36.90
2023-04-06T10:38:10.365Z,36.30
2023-04-06T10:40:39.518Z,37.50
2023-04-06T10:43:14.388Z,37.30
2023-04-06T10:45:44.140Z,37.20
2023-04-06T10:48:19.230Z,38.10
2023-04-06T10:50:52.921Z,35.70
2023-04-06T10:53:27.366Z,35.00
2023-04-06T10:55:57.955Z,36.20
2023-04-06T10:58:28.899Z,36.40
2023-04-06T11:00:56.964Z,35.80
2023-04-06T11:03:24.302Z,35.50
2023-04-06T11:05:52.498Z,35.70
2023-04-06T11:08:33.829Z,36.80
2023-04-06T11:11:08.587Z,36.10
2023-04-06T11:13:48.038Z,36.20
2023-04-06T11:16:18.894Z,36.50
2023-04-06T11:18:51.962Z,35.50
2023-04-06T11:21:20.647Z,34.50
2023-04-06T11:23:47.724Z,35.50
2023-04-06T11:26:15.727Z,34.80
2023-04-06T11:28:44.220Z,34.00
2023-04-06T11:31:12.567Z,35.10
2023-04-06T11:33:40.134Z,35.00
2023-04-06T11:36:08.016Z,35.20
2023-04-06T11:38:35.437Z,34.70
2023-04-06T11:41:03.553Z,34.50
2023-04-06T11:43:33.584Z,34.10
2023-04-06T11:46:05.262Z,33.70
2023-04-06T11:48:32.692Z,33.60
2023-04-06T11:51:05.997Z,33.10
2023-04-06T11:53:34.401Z,34.00
2023-04-06T11:56:01.426Z,34.60
2023-04-06T11:58:28.518Z,34.60
2023-04-06T12:01:03.840Z,34.50
2023-04-06T12:03:30.890Z,34.70
2023-04-06T12:05:59.699Z,34.80
2023-04-06T12:08:27.035Z,34.70
2023-04-06T12:10:53.948Z,34.50
2023-04-06T12:13:20.942Z,34.70
2023-04-06T12:15:47.917Z,34.90
2023-04-06T12:18:14.911Z,35.10
2023-04-06T12:20:41.840Z,34.20
2023-04-06T12:23:08.923Z,34.10
2023-04-06T12:25:36.514Z,33.70
2023-04-06T12:28:03.505Z,33.40
2023-04-06T12:30:30.454Z,33.90
2023-04-06T12:32:57.565Z,35.10
2023-04-06T12:35:24.621Z,34.40
2023-04-06T12:37:51.858Z,34.20
2023-04-06T12:40:18.848Z,34.80
2023-04-06T12:42:47.183Z,34.90
2023-04-06T12:45:14.190Z,35.10
2023-04-06T12:47:41.310Z,33.20
2023-04-06T12:50:08.751Z,33.80
2023-04-06T12:52:37.564Z,34.00
2023-04-06T12:55:06.232Z,34.00
2023-04-06T12:57:33.314Z,34.00
2023-04-06T13:00:01.254Z,33.70
2023-04-06T13:02:28.526Z,34.20
2023-04-06T13:04:55.856Z,34.40
2023-04-06T13:07:23.257Z,35.30
2023-04-06T13:09:50.689Z,35.10
2023-04-06T13:12:17.768Z,33.50
2023-04-06T13:14:44.780Z,33.50
2023-04-06T13:17:11.966Z,34.40
2023-04-06T13:19:38.900Z,34.00
2023-04-06T13:22:06.077Z,32.80
2023-04-06T13:24:33.002Z,33.30
2023-04-06T13:27:00.121Z,34.50
2023-04-06T13:29:27.275Z,35.20
2023-04-06T13:31:54.294Z,34.90
2023-04-06T13:34:21.324Z,34.00
2023-04-06T13:36:48.396Z,34.20
2023-04-06T13:39:15.420Z,34.90
2023-04-06T13:41:42.489Z,33.90
2023-04-06T13:44:09.466Z,33.90
2023-04-06T13:46:36.990Z,33.40
2023-04-06T13:49:03.938Z,33.50
2023-04-06T13:51:31.868Z,33.00
2023-04-06T13:53:58.772Z,33.60
2023-04-06T13:56:25.895Z,34.70
2023-04-06T13:58:56.750Z,35.40
2023-04-06T14:01:23.893Z,35.30
2023-04-06T14:03:51.112Z,35.10
2023-04-06T14:08:48.338Z,35.80
2023-04-06T14:11:15.740Z,36.40
2023-04-06T14:13:43.150Z,36.30
2023-04-06T14:16:10.319Z,36.20
2023-04-06T14:18:38.034Z,35.70
2023-04-06T14:21:05.138Z,34.90
2023-04-06T14:23:34.009Z,34.60
2023-04-06T14:26:09.344Z,33.80
2023-04-06T14:28:37.441Z,34.30
2023-04-06T14:31:12.741Z,34.80
2023-04-06T14:33:40.987Z,34.70
2023-04-06T14:36:08.877Z,34.30
2023-04-06T14:38:36.641Z,34.10
2023-04-06T14:41:03.560Z,34.30
2023-04-06T14:43:30.865Z,34.50
2023-04-06T14:46:01.850Z,34.60
2023-04-06T14:48:29.432Z,34.60
2023-04-06T14:50:57.471Z,35.50
2023-04-06T14:53:25.498Z,35.70
2023-04-06T14:55:52.467Z,36.00
2023-04-06T14:58:20.466Z,35.60
2023-04-06T15:00:47.925Z,35.40
2023-04-06T15:03:15.542Z,36.00
2023-04-06T15:05:43.266Z,36.50
2023-04-06T15:08:10.666Z,34.10
2023-04-06T15:10:37.625Z,34.50
2023-04-06T15:13:04.721Z,34.00
2023-04-06T15:15:31.864Z,33.00
2023-04-06T15:17:58.972Z,33.50
2023-04-06T15:20:25.937Z,35.10
2023-04-06T15:22:52.862Z,35.80
2023-04-06T15:25:19.784Z,36.40
2023-04-06T15:27:46.722Z,34.90
2023-04-06T15:30:14.070Z,34.50
2023-04-06T15:32:41.282Z,34.90
2023-04-06T15:35:12.673Z,35.90
2023-04-06T15:37:39.996Z,36.60
2023-04-06T15:40:07.968Z,37.20
2023-04-06T15:42:34.914Z,37.80
2023-04-06T15:45:01.870Z,37.60
2023-04-06T15:47:28.823Z,37.70
2023-04-06T15:49:55.761Z,37.80
2023-04-06T15:52:23.741Z,38.20
2023-04-06T15:54:50.797Z,38.00
2023-04-06T15:57:17.819Z,38.00
2023-04-06T15:59:44.964Z,37.80
2023-04-06T16:02:11.997Z,38.10
2023-04-06T16:04:39.103Z,37.50
2023-04-06T16:07:06.163Z,37.60
2023-04-06T16:09:33.038Z,37.40
2023-04-06T16:11:59.982Z,37.90
2023-04-06T16:14:26.923Z,37.00
2023-04-06T16:16:54.955Z,36.90
2023-04-06T16:19:21.843Z,37.60
2023-04-06T16:21:48.865Z,38.10
2023-04-06T16:24:16.021Z,38.80
2023-04-06T16:26:44.382Z,38.50
2023-04-06T16:29:11.589Z,38.80
2023-04-06T16:31:38.793Z,39.00
2023-04-06T16:34:05.787Z,39.50
2023-04-06T16:36:34.002Z,40.20
2023-04-06T16:39:02.253Z,40.90
2023-04-06T16:41:29.277Z,41.80
2023-04-06T16:43:57.584Z,42.30
2023-04-06T16:46:31.392Z,42.20
2023-04-06T16:49:02.506Z,42.00
2023-04-06T16:51:30.139Z,41.80
2023-04-06T16:53:56.976Z,41.70
2023-04-06T16:56:24.054Z,41.70
2023-04-06T16:58:51.178Z,41.40
2023-04-06T17:01:22.944Z,41.70
2023-04-06T17:03:50.446Z,41.60
2023-04-06T17:06:17.833Z,41.40
2023-04-06T17:08:47.065Z,41.40
2023-04-06T17:11:18.654Z,41.80
2023-04-06T17:13:49.800Z,42.20
2023-04-06T17:16:16.821Z,42.40
2023-04-06T17:18:43.775Z,42.10
2023-04-06T17:21:14.339Z,41.80
2023-04-06T17:23:41.772Z,42.70
2023-04-06T17:26:08.957Z,44.20
2023-04-06T17:28:36.175Z,45.00
2023-04-06T17:31:07.361Z,45.40
2023-04-06T17:33:35.374Z,45.30
2023-04-06T17:36:03.193Z,45.20
2023-04-06T17:38:30.593Z,45.00
2023-04-06T17:40:57.800Z,45.20
2023-04-06T17:43:24.776Z,45.70
2023-04-06T17:45:52.138Z,46.10
2023-04-06T17:48:19.571Z,46.40
2023-04-06T17:50:46.462Z,46.90
2023-04-06T17:53:13.633Z,47.60
2023-04-06T17:55:40.522Z,48.10
2023-04-06T17:58:07.485Z,48.70
2023-04-06T18:00:34.569Z,49.00
2023-04-06T18:03:02.070Z,49.20
2023-04-06T18:05:29.168Z,49.80
2023-04-06T18:07:57.119Z,50.10
2023-04-06T18:10:24.704Z,50.10
2023-04-06T18:12:51.677Z,50.10
2023-04-06T18:15:18.642Z,50.40
2023-04-06T18:17:47.152Z,50.40
2023-04-06T18:20:15.811Z,50.60
2023-04-06T18:22:43.240Z,51.40
2023-04-06T18:25:10.412Z,52.20
2023-04-06T18:27:37.394Z,52.60
2023-04-06T18:30:05.060Z,53.70
2023-04-06T18:32:32.054Z,54.60
2023-04-06T18:34:59.306Z,54.70
2023-04-06T18:37:26.709Z,55.00
2023-04-06T18:39:54.660Z,55.20
2023-04-06T18:42:21.686Z,55.20
2023-04-06T18:44:48.813Z,54.60
2023-04-06T18:47:16.136Z,53.50
2023-04-06T18:49:43.091Z,53.50
2023-04-06T18:52:10.098Z,53.00
2023-04-06T18:54:37.126Z,51.70
2023-04-06T18:57:04.881Z,51.40
2023-04-06T18:59:31.908Z,51.80
2023-04-06T19:01:59.348Z,52.50
2023-04-06T19:04:26.991Z,53.00
2023-04-06T19:06:55.408Z,53.40
2023-04-06T19:09:22.325Z,53.90
2023-04-06T19:11:49.238Z,54.30
2023-04-06T19:14:16.289Z,54.50
2023-04-06T19:16:51.895Z,55.00
2023-04-06T19:19:19.648Z,55.20
2023-04-06T19:21:46.710Z,54.60
2023-04-06T19:24:13.740Z,54.20
2023-04-06T19:26:42.499Z,54.20
2023-04-06T19:29:10.496Z,55.50
2023-04-06T19:31:37.440Z,56.20
2023-04-06T19:34:04.971Z,55.90
2023-04-06T19:36:32.445Z,55.40
2023-04-06T19:38:59.864Z,54.90
2023-04-06T19:41:27.418Z,54.70
2023-04-06T19:43:54.444Z,55.30
2023-04-06T19:46:21.649Z,56.10
2023-04-06T19:48:48.848Z,56.20
2023-04-06T19:51:16.140Z,55.40
2023-04-06T19:53:43.185Z,54.90
2023-04-06T19:56:10.373Z,55.10
2023-04-06T19:58:38.595Z,55.30
2023-04-06T20:01:05.658Z,55.70
2023-04-06T20:03:33.508Z,56.20
2023-04-06T20:06:00.843Z,56.20
2023-04-06T20:08:29.848Z,56.50
2023-04-06T20:11:04.942Z,57.20
2023-04-06T20:13:31.967Z,58.20
2023-04-06T20:15:59.016Z,58.40
2023-04-06T20:18:26.601Z,58.80
2023-04-06T20:20:54.555Z,59.10
2023-04-06T20:23:21.566Z,59.40
2023-04-06T20:25:48.578Z,59.60
2023-04-06T20:28:16.259Z,59.70
2023-04-06T20:30:43.286Z,59.80
2023-04-06T20:33:10.430Z,59.80
2023-04-06T20:35:37.353Z,59.50
2023-04-06T20:38:04.301Z,60.10
2023-04-06T20:40:31.322Z,60.60
2023-04-06T20:42:58.862Z,61.00
2023-04-06T20:45:25.930Z,61.50
2023-04-06T20:47:53.891Z,61.70
2023-04-06T20:50:24.446Z,61.90
2023-04-06T20:52:51.403Z,61.70
2023-04-06T20:55:18.630Z,61.90
2023-04-06T20:57:46.383Z,61.50
2023-04-06T21:00:13.506Z,61.40
2023-04-06T21:02:41.348Z,61.30
2023-04-06T21:05:09.476Z,61.40
2023-04-06T21:07:37.741Z,61.80
2023-04-06T21:10:06.161Z,62.30
2023-04-06T21:12:33.192Z,62.80
2023-04-06T21:15:00.156Z,63.10
2023-04-06T21:17:27.145Z,63.10
2023-04-06T21:19:54.045Z,62.90
2023-04-06T21:22:20.995Z,62.90
2023-04-06T21:24:47.907Z,63.10
2023-04-06T21:27:14.990Z,63.50
2023-04-06T21:29:41.858Z,63.60
2023-04-06T21:32:08.867Z,63.80
2023-04-06T21:34:35.803Z,64.70
2023-04-06T21:37:02.786Z,64.20
2023-04-06T21:39:29.772Z,64.30
2023-04-06T21:41:57.228Z,64.50
2023-04-06T21:44:24.413Z,64.80
2023-04-06T21:46:51.448Z,65.20
2023-04-06T21:49:18.386Z,65.10
2023-04-06T21:51:45.830Z,64.70
2023-04-06T21:54:12.831Z,64.60
2023-04-06T21:56:39.778Z,64.50
2023-04-06T21:59:06.684Z,64.40
2023-04-06T22:01:33.816Z,64.30
2023-04-06T22:04:02.233Z,64.30
2023-04-06T22:06:30.094Z,64.50
2023-04-06T22:08:58.218Z,64.50
2023-04-06T22:11:25.700Z,64.20
2023-04-06T22:13:52.804Z,64.20
2023-04-06T22:16:19.815Z,64.40
2023-04-06T22:18:46.813Z,64.40
2023-04-06T22:21:13.776Z,64.30
2023-04-06T22:23:42.475Z,64.30
2023-04-06T22:26:11.261Z,64.10
2023-04-06T22:28:38.326Z,63.90
2023-04-06T22:31:05.421Z,63.70
2023-04-06T22:33:32.318Z,63.80
2023-04-06T22:35:59.446Z,64.00
2023-04-06T22:38:26.560Z,64.10
2023-04-06T22:40:53.593Z,64.10
2023-04-06T22:43:20.526Z,64.40
2023-04-06T22:45:47.500Z,64.60
2023-04-06T22:48:14.458Z,65.20
2023-04-06T22:50:41.563Z,65.20
2023-04-06T22:53:08.489Z,65.10
2023-04-06T22:55:35.422Z,65.10
2023-04-06T22:58:02.293Z,65.10
2023-04-06T23:00:29.369Z,65.20
2023-04-06T23:02:56.392Z,65.50
2023-04-06T23:05:23.585Z,65.90
2023-04-06T23:07:51.541Z,66.40
2023-04-06T23:10:20.360Z,67.10
2023-04-06T23:12:48.404Z,67.80
2023-04-06T23:15:15.810Z,68.30
2023-04-06T23:17:42.761Z,68.60
2023-04-06T23:20:09.956Z,68.90
2023-04-06T23:22:36.975Z,68.70
2023-04-06T23:25:04.183Z,68.20
2023-04-06T23:27:31.152Z,67.80
2023-04-06T23:29:58.090Z,67.40
2023-04-06T23:32:25.539Z,67.10
2023-04-06T23:34:52.511Z,66.80
2023-04-06T23:37:19.482Z,66.50
2023-04-06T23:39:48.380Z,66.30
2023-04-06T23:42:15.959Z,66.20
2023-04-06T23:44:43.091Z,66.10
2023-04-06T23:47:10.753Z,66.00
2023-04-06T23:49:37.887Z,66.00
2023-04-06T23:52:04.775Z,65.90
2023-04-06T23:54:31.727Z,66.10
2023-04-06T23:56:58.732Z,66.30
2023-04-06T23:59:25.812Z,66.30
